createdAt,value
2019-05-09T00:00:43.744Z,49.09
2019-05-09T00:03:18.218Z,49.20
2019-05-09T00:06:04.601Z,49.18
2019-05-09T00:08:36.932Z,49.32
2019-05-09T00:11:08.826Z,49.32
2019-05-09T00:13:43.460Z,49.45
2019-05-09T00:16:16.363Z,49.36
2019-05-09T00:18:54.049Z,49.40
2019-05-09T00:21:28.402Z,49.46
2019-05-09T00:24:03.511Z,49.65
2019-05-09T00:26:36.755Z,49.66
2019-05-09T00:29:21.163Z,49.56
2019-05-09T00:31:54.535Z,49.69
2019-05-09T00:34:39.945Z,49.82
2019-05-09T00:37:13.534Z,49.93
2019-05-09T00:39:45.688Z,49.95
2019-05-09T00:42:18.622Z,49.91
2019-05-09T00:44:58.928Z,49.93
2019-05-09T00:47:32.927Z,49.98
2019-05-09T00:50:08.377Z,49.90
2019-05-09T00:52:43.045Z,49.89
2019-05-09T00:55:15.842Z,49.82
2019-05-09T00:57:48.849Z,49.84
2019-05-09T01:00:24.124Z,49.90
2019-05-09T01:02:56.671Z,50.10
2019-05-09T01:05:28.416Z,49.91
2019-05-09T01:08:04.194Z,49.95
2019-05-09T01:10:37.145Z,49.90
2019-05-09T01:13:14.037Z,50.08
2019-05-09T01:15:46.496Z,50.17
2019-05-09T01:18:20.440Z,50.33
2019-05-09T01:20:53.093Z,50.58
2019-05-09T01:23:27.630Z,50.79
2019-05-09T01:25:59.736Z,51.11
2019-05-09T01:28:33.854Z,51.17
2019-05-09T01:31:07.449Z,51.34
2019-05-09T01:33:53.280Z,51.52
2019-05-09T01:36:26.163Z,51.48
2019-05-09T01:38:59.060Z,51.68
2019-05-09T01:41:34.067Z,51.68
2019-05-09T01:44:06.567Z,51.83
2019-05-09T01:46:39.548Z,51.87
2019-05-09T01:49:13.800Z,52.02
2019-05-09T01:51:47.068Z,52.16
2019-05-09T01:54:20.495Z,52.11
2019-05-09T01:56:53.776Z,52.21
2019-05-09T01:59:25.839Z,52.36
2019-05-09T02:01:57.472Z,52.53
2019-05-09T02:04:30.743Z,52.50
2019-05-09T02:07:04.469Z,52.42
2019-05-09T02:09:36.441Z,52.33
2019-05-09T02:12:09.423Z,52.28
2019-05-09T02:15:03.881Z,52.46
2019-05-09T02:17:58.900Z,52.45
2019-05-09T02:20:24.234Z,52.44
2019-05-09T02:22:57.315Z,52.49
2019-05-09T02:25:30.318Z,52.40
2019-05-09T02:28:03.500Z,52.62
2019-05-09T02:30:36.185Z,52.71
2019-05-09T02:33:09.278Z,52.59
2019-05-09T02:35:56.254Z,52.67
2019-05-09T02:38:19.718Z,52.87
2019-05-09T02:40:51.791Z,52.90
2019-05-09T02:43:24.606Z,52.89
2019-05-09T02:46:11.447Z,52.98
2019-05-09T02:48:43.174Z,53.09
2019-05-09T02:51:14.924Z,53.22
2019-05-09T02:53:48.696Z,53.49
2019-05-09T02:56:21.816Z,53.39
2019-05-09T02:59:05.309Z,53.28
2019-05-09T03:01:49.559Z,53.39
2019-05-09T03:04:21.384Z,53.46
2019-05-09T03:06:54.346Z,53.52
2019-05-09T03:09:28.811Z,53.39
2019-05-09T03:12:21.262Z,53.48
2019-05-09T03:14:38.815Z,53.47
2019-05-09T03:17:11.829Z,53.45
2019-05-09T03:19:44.833Z,53.41
2019-05-09T03:22:20.378Z,53.54
2019-05-09T03:24:52.034Z,53.54
2019-05-09T03:27:48.265Z,53.71
2019-05-09T03:30:21.012Z,53.54
2019-05-09T03:32:53.129Z,53.36
2019-05-09T03:35:24.859Z,53.42
2019-05-09T03:38:08.261Z,53.46
2019-05-09T03:40:40.051Z,53.56
2019-05-09T03:43:13.065Z,53.68
2019-05-09T03:45:49.135Z,53.48
2019-05-09T03:48:34.519Z,53.62
2019-05-09T03:51:08.098Z,53.63
2019-05-09T03:53:40.661Z,53.81
2019-05-09T03:56:15.279Z,53.73
2019-05-09T03:58:47.500Z,53.60
2019-05-09T04:01:19.629Z,53.87
2019-05-09T04:03:51.380Z,53.68
2019-05-09T04:06:24.363Z,53.74
2019-05-09T04:08:58.540Z,54.12
2019-05-09T04:11:31.564Z,54.02
2019-05-09T04:14:21.351Z,54.03
2019-05-09T04:16:52.954Z,54.20
2019-05-09T04:19:27.881Z,54.26
2019-05-09T04:22:02.188Z,54.36
2019-05-09T04:24:33.214Z,54.37
2019-05-09T04:27:07.815Z,54.45
2019-05-09T04:29:39.715Z,54.46
2019-05-09T04:32:11.448Z,54.52
2019-05-09T04:34:43.180Z,54.64
2019-05-09T04:37:15.292Z,54.78
2019-05-09T04:39:47.621Z,54.76
2019-05-09T04:42:19.460Z,54.70
2019-05-09T04:44:57.594Z,54.67
2019-05-09T04:47:28.756Z,54.92
2019-05-09T04:50:07.608Z,54.88
2019-05-09T04:52:39.992Z,54.86
2019-05-09T04:55:12.799Z,54.95
2019-05-09T04:57:45.624Z,55.01
2019-05-09T05:00:19.100Z,55.12
2019-05-09T05:02:52.431Z,55.03
2019-05-09T05:05:24.320Z,55.16
2019-05-09T05:07:57.359Z,55.07
2019-05-09T05:10:30.271Z,55.06
2019-05-09T05:13:02.012Z,54.95
2019-05-09T05:15:33.763Z,54.87
2019-05-09T05:18:05.627Z,54.97
2019-05-09T05:20:38.509Z,54.73
2019-05-09T05:23:11.999Z,54.54
2019-05-09T05:25:43.689Z,54.50
2019-05-09T05:28:17.568Z,54.04
2019-05-09T05:30:51.398Z,53.85
2019-05-09T05:33:27.886Z,53.82
2019-05-09T13:22:52.060Z,75.72
2019-05-09T13:25:34.040Z,76.62
2019-05-09T13:28:08.299Z,76.42
2019-05-09T13:30:39.797Z,76.74
2019-05-09T13:33:14.024Z,77.56
2019-05-09T13:35:45.690Z,77.32
2019-05-09T13:38:18.017Z,77.31
2019-05-09T13:40:53.475Z,77.70
2019-05-09T13:43:24.672Z,76.79
2019-05-09T13:45:58.683Z,76.09
2019-05-09T13:48:55.225Z,76.23
2019-05-09T13:51:04.004Z,74.94
2019-05-09T13:53:35.744Z,76.07
2019-05-09T13:56:08.462Z,76.56
2019-05-09T13:58:41.640Z,75.68
2019-05-09T14:01:14.284Z,76.71
2019-05-09T14:03:45.808Z,74.48
2019-05-09T14:06:17.569Z,74.92
2019-05-09T14:08:49.800Z,73.74
2019-05-09T14:11:23.113Z,75.57
2019-05-09T14:13:54.655Z,75.05
2019-05-09T14:16:28.660Z,75.18
2019-05-09T14:19:23.979Z,74.50
2019-05-09T14:21:33.380Z,74.34
2019-05-09T14:24:14.054Z,74.28
2019-05-09T14:26:40.371Z,75.84
2019-05-09T14:29:13.316Z,75.00
2019-05-09T14:31:45.372Z,76.38
2019-05-09T14:34:19.714Z,76.22
2019-05-09T14:36:51.948Z,76.13
2019-05-09T14:39:23.952Z,75.68
2019-05-09T14:41:57.807Z,74.15
2019-05-09T14:44:30.238Z,75.32
2019-05-09T14:47:02.251Z,75.77
2019-05-09T14:49:41.413Z,75.96
2019-05-09T14:52:08.537Z,75.38
2019-05-09T14:54:40.642Z,75.19
2019-05-09T14:57:14.020Z,74.97
2019-05-09T14:59:45.645Z,76.54
2019-05-09T15:02:20.659Z,74.88
2019-05-09T15:04:52.333Z,75.25
2019-05-09T15:07:24.099Z,75.58
2019-05-09T15:09:57.583Z,75.40
2019-05-09T15:12:31.291Z,76.46
2019-05-09T15:15:07.582Z,75.37
2019-05-09T15:17:39.075Z,75.70
2019-05-09T15:20:12.700Z,75.25
2019-05-09T15:22:47.750Z,76.23
2019-05-09T15:25:20.630Z,76.36
2019-05-09T15:27:53.178Z,76.97
2019-05-09T15:30:24.966Z,78.32
2019-05-09T15:33:01.394Z,77.26
2019-05-09T15:35:33.077Z,76.94
2019-05-09T15:38:11.322Z,77.11
2019-05-09T15:40:42.910Z,77.54
2019-05-09T15:43:14.776Z,77.45
2019-05-09T15:45:57.929Z,78.16
2019-05-09T15:48:29.308Z,77.63
2019-05-09T15:51:01.161Z,77.77
2019-05-09T15:53:38.097Z,77.58
2019-05-09T15:56:09.847Z,77.22
2019-05-09T15:58:41.925Z,77.14
2019-05-09T16:01:13.660Z,77.62
2019-05-09T16:03:48.604Z,77.86
2019-05-09T16:06:22.308Z,77.54
2019-05-09T16:08:58.518Z,77.68
2019-05-09T16:11:32.125Z,77.83
2019-05-09T16:14:03.895Z,78.13
2019-05-09T16:16:35.726Z,78.26
2019-05-09T16:19:09.179Z,78.38
2019-05-09T16:21:40.988Z,78.14
2019-05-09T16:24:18.860Z,78.04
2019-05-09T16:26:53.756Z,79.08
2019-05-09T16:29:30.364Z,78.62
2019-05-09T16:32:03.518Z,79.83
2019-05-09T16:34:40.079Z,79.39
2019-05-09T16:37:13.464Z,79.38
2019-05-09T16:39:47.023Z,79.16
2019-05-09T16:42:21.763Z,79.61
2019-05-09T16:44:54.663Z,79.56
2019-05-09T16:47:28.441Z,79.07
2019-05-09T16:50:01.150Z,79.29
2019-05-09T16:52:39.847Z,79.71
2019-05-09T16:55:12.635Z,80.43
2019-05-09T16:57:44.291Z,80.64
2019-05-09T17:00:30.226Z,80.58
2019-05-09T17:03:01.793Z,80.70
2019-05-09T17:05:33.388Z,81.38
2019-05-09T17:08:05.133Z,81.60
2019-05-09T17:10:38.471Z,81.63
2019-05-09T17:13:10.207Z,81.29
2019-05-09T17:15:41.989Z,81.66
2019-05-09T17:18:15.266Z,82.40
2019-05-09T17:20:50.616Z,82.39
2019-05-09T17:23:24.135Z,82.51
2019-05-09T17:25:57.918Z,83.21
2019-05-09T17:28:29.812Z,82.71
2019-05-09T17:31:04.663Z,82.85
2019-05-09T17:33:37.944Z,83.25
2019-05-09T17:36:10.049Z,83.21
2019-05-09T17:38:43.855Z,83.70
2019-05-09T17:41:19.018Z,83.86
2019-05-09T17:43:54.958Z,83.71
2019-05-09T17:46:28.060Z,84.01
2019-05-09T17:48:59.712Z,83.71
2019-05-09T17:51:33.868Z,83.80
2019-05-09T17:54:07.828Z,84.01
2019-05-09T17:56:40.407Z,84.04
2019-05-09T17:59:18.525Z,84.43
2019-05-09T18:01:51.096Z,84.56
2019-05-09T18:04:22.892Z,84.64
2019-05-09T18:06:54.698Z,84.50
2019-05-09T18:09:28.589Z,84.24
2019-05-09T18:12:00.711Z,84.63
2019-05-09T18:14:33.077Z,84.67
2019-05-09T18:17:05.008Z,85.14
2019-05-09T18:19:38.105Z,85.46
2019-05-09T18:22:10.898Z,85.39
2019-05-09T18:24:42.785Z,85.60
2019-05-09T18:27:14.617Z,85.84
2019-05-09T18:29:47.398Z,85.96
2019-05-09T18:32:31.114Z,86.42
2019-05-09T18:35:13.058Z,86.62
2019-05-09T18:37:48.260Z,86.95
2019-05-09T18:40:21.852Z,86.82
2019-05-09T18:42:53.603Z,87.54
2019-05-09T18:45:30.237Z,87.83
2019-05-09T18:48:02.102Z,87.10
2019-05-09T18:50:33.885Z,87.22
2019-05-09T18:53:05.537Z,87.34
2019-05-09T18:55:37.300Z,87.55
2019-05-09T18:58:10.739Z,88.17
2019-05-09T19:00:45.898Z,88.96
2019-05-09T19:03:17.540Z,89.56
2019-05-09T19:05:49.292Z,90.15
2019-05-09T19:08:22.721Z,89.81
2019-05-09T19:10:56.026Z,89.57
2019-05-09T19:13:27.817Z,89.34
2019-05-09T19:16:16.488Z,89.33
2019-05-09T19:19:08.134Z,89.12
2019-05-09T19:21:41.438Z,88.86
2019-05-09T19:24:13.101Z,88.57
2019-05-09T19:26:44.859Z,88.82
2019-05-09T19:29:18.149Z,88.84
2019-05-09T19:31:49.915Z,89.64
2019-05-09T19:34:21.463Z,90.62
2019-05-09T19:36:53.140Z,91.04
2019-05-09T19:39:24.913Z,92.06
2019-05-09T19:41:57.380Z,92.33
2019-05-09T19:44:29.228Z,92.36
2019-05-09T19:47:03.968Z,91.89
2019-05-09T19:49:36.596Z,91.52
2019-05-09T19:52:09.517Z,90.64
2019-05-09T19:54:41.269Z,90.37
2019-05-09T19:57:13.892Z,89.79
2019-05-09T19:59:50.462Z,89.87
2019-05-09T20:02:22.615Z,90.28
2019-05-09T20:04:57.378Z,90.11
2019-05-09T20:07:32.181Z,89.57
2019-05-09T20:10:09.910Z,89.91
2019-05-09T20:12:59.356Z,89.46
2019-05-09T20:15:30.907Z,89.17
2019-05-09T20:18:02.673Z,89.21
2019-05-09T20:20:34.482Z,90.25
2019-05-09T20:23:06.249Z,89.93
2019-05-09T20:25:38.005Z,89.12
2019-05-09T20:28:09.764Z,89.21
2019-05-09T20:30:43.402Z,88.65
2019-05-09T20:33:17.228Z,89.21
2019-05-09T20:35:55.982Z,90.02
2019-05-09T20:38:31.882Z,89.34
2019-05-09T20:41:09.998Z,89.60
2019-05-09T20:43:44.586Z,90.51
2019-05-09T20:46:16.538Z,90.36
2019-05-09T20:48:48.770Z,90.49
2019-05-09T20:51:27.053Z,90.69
2019-05-09T20:54:19.950Z,91.51
2019-05-09T20:56:37.168Z,91.79
2019-05-09T20:59:10.608Z,92.43
2019-05-09T21:01:42.911Z,93.28
2019-05-09T21:04:15.968Z,93.40
2019-05-09T21:06:48.151Z,93.82
2019-05-09T21:09:21.678Z,93.76
2019-05-09T21:11:53.697Z,93.52
2019-05-09T21:14:25.524Z,93.54
2019-05-09T21:16:57.573Z,93.37
2019-05-09T21:19:29.609Z,92.91
2019-05-09T21:22:01.698Z,92.80
2019-05-09T21:24:33.724Z,92.89
2019-05-09T21:27:05.566Z,93.34
2019-05-09T21:29:38.466Z,92.66
2019-05-09T21:32:10.319Z,92.33
2019-05-09T21:34:42.181Z,92.86
2019-05-09T21:37:14.150Z,92.19
2019-05-09T21:39:46.235Z,92.11
2019-05-09T21:42:18.011Z,92.64
2019-05-09T21:44:49.719Z,92.62
2019-05-09T21:47:21.558Z,92.50
2019-05-09T21:49:54.498Z,92.53
2019-05-09T21:52:27.217Z,92.69
2019-05-09T21:54:58.953Z,92.22
2019-05-09T21:57:31.963Z,92.80
2019-05-09T22:00:05.993Z,92.33
2019-05-09T22:02:39.432Z,92.13
2019-05-09T22:05:12.448Z,92.33
2019-05-09T22:07:44.203Z,92.55
2019-05-09T22:10:16.302Z,93.15
2019-05-09T22:12:48.060Z,92.93
2019-05-09T22:15:20.843Z,93.13
2019-05-09T22:17:52.555Z,93.74
2019-05-09T22:20:25.771Z,94.59
2019-05-09T22:22:57.517Z,94.83
2019-05-09T22:25:29.258Z,94.81
2019-05-09T22:28:00.994Z,95.04
2019-05-09T22:30:32.839Z,95.19
2019-05-09T22:33:04.614Z,96.08
2019-05-09T22:35:36.291Z,95.55
2019-05-09T22:38:08.115Z,95.71
2019-05-09T22:40:39.868Z,95.22
2019-05-09T22:43:13.135Z,95.26
2019-05-09T22:45:45.500Z,94.78
2019-05-09T22:48:17.235Z,94.70
2019-05-09T22:50:48.969Z,94.76
2019-05-09T22:53:20.828Z,94.09
2019-05-09T22:55:52.552Z,93.63
2019-05-09T22:58:24.301Z,93.36
2019-05-09T23:00:56.028Z,93.47
2019-05-09T23:03:27.785Z,93.37
2019-05-09T23:05:59.542Z,93.20
2019-05-09T23:08:31.304Z,93.05
2019-05-09T23:11:03.041Z,93.20
2019-05-09T23:13:36.517Z,92.91
2019-05-09T23:16:09.571Z,93.39
2019-05-09T23:18:41.391Z,93.48
2019-05-09T23:21:16.481Z,93.82
2019-05-09T23:23:56.064Z,93.48
2019-05-09T23:26:27.796Z,93.19
2019-05-09T23:28:59.560Z,92.89
2019-05-09T23:31:38.938Z,93.29
2019-05-09T23:34:10.686Z,93.35
2019-05-09T23:36:42.637Z,93.26
2019-05-09T23:39:25.005Z,93.57
2019-05-09T23:41:56.927Z,93.75
2019-05-09T23:44:28.879Z,93.58
2019-05-09T23:47:00.659Z,93.80
2019-05-09T23:49:32.293Z,93.84
2019-05-09T23:52:04.143Z,94.21
2019-05-09T23:54:53.599Z,93.84
2019-05-09T23:57:43.302Z,93.73
